Terminal Aerodrome Forecast
Issued by NWS Sterling, VA

Current Version | Previous Version | Text Only | Print | Product List | Glossary Off
Versions: 1 2 3 4 5 6 7 8 9 10 11 12 13 14 15 16 17 18 19

000
FTUS41 KLWX 290541
TAFMRB
TAF
KMRB 290541Z 2906/3006 11005KT 3SM -DZ BR OVC007
     FM290800 VRB03KT 1SM -DZRA BR OVC003
     FM291500 09004KT 3SM -DZ BR OVC008
     FM291700 10005KT 5SM BR OVC015
     FM292100 09006KT P6SM OVC025
     FM300200 VRB03KT P6SM OVC010
     FM300400 VRB03KT 3SM -DZ BR OVC008=

USA.gov is the U.S. government's official web portal to all federal, state and local government web resources and services.